createdAt,value
2017-10-06T00:01:15.575Z,0.00
2017-10-06T00:09:35.122Z,0.00
2017-10-06T00:10:42.105Z,0.00
2017-10-06T00:12:26.219Z,0.00
2017-10-06T00:13:26.625Z,0.00
2017-10-06T00:14:26.347Z,0.00
2017-10-06T00:21:12.142Z,0.00
2017-10-06T00:26:01.235Z,0.00
2017-10-06T00:26:57.750Z,0.00
2017-10-06T00:30:21.270Z,0.00
2017-10-06T00:31:17.251Z,0.00
2017-10-06T00:32:17.252Z,0.00
2017-10-06T00:39:59.594Z,0.00
2017-10-06T00:40:57.420Z,0.00
2017-10-06T00:41:56.914Z,0.00
2017-10-06T00:42:56.428Z,0.00
2017-10-06T00:46:36.989Z,0.00
2017-10-06T00:47:32.660Z,0.00
2017-10-06T00:48:32.277Z,0.00
2017-10-06T00:57:19.847Z,0.00
2017-10-06T00:58:17.235Z,0.00
2017-10-06T01:02:35.224Z,0.00
2017-10-06T01:07:41.147Z,0.00
2017-10-06T01:10:31.623Z,0.00
2017-10-06T01:18:23.349Z,0.00
2017-10-06T01:19:19.075Z,0.00
2017-10-06T01:20:19.090Z,0.00
2017-10-06T01:21:18.185Z,0.00
2017-10-06T01:22:18.654Z,0.00
2017-10-06T01:23:18.640Z,0.00
2017-10-06T01:24:19.099Z,0.00
2017-10-06T01:25:18.520Z,0.00
2017-10-06T01:26:18.593Z,0.00
2017-10-06T01:27:17.960Z,0.00
2017-10-06T01:31:19.966Z,0.00
2017-10-06T01:32:16.986Z,0.00
2017-10-06T01:33:17.478Z,0.00
2017-10-06T01:34:16.895Z,0.00
2017-10-06T01:35:17.813Z,0.00
2017-10-06T01:36:16.859Z,0.00
2017-10-06T01:37:16.961Z,0.00
2017-10-06T01:38:17.276Z,0.00
2017-10-06T01:39:17.747Z,0.00
2017-10-06T01:40:16.870Z,0.00
2017-10-06T01:45:30.173Z,0.00
2017-10-06T01:46:28.386Z,0.00
2017-10-06T01:47:28.573Z,0.00
2017-10-06T01:48:28.307Z,0.00
2017-10-06T01:49:29.338Z,0.00
2017-10-06T01:50:28.229Z,0.00
2017-10-06T01:51:27.768Z,0.00
2017-10-06T01:52:27.609Z,0.00
2017-10-06T01:53:27.943Z,0.00
2017-10-06T01:54:28.545Z,0.00
2017-10-06T01:55:28.519Z,0.00
2017-10-06T01:56:27.456Z,0.00
2017-10-06T01:57:27.898Z,0.00
2017-10-06T01:58:40.083Z,0.00
2017-10-06T01:59:27.879Z,0.00
2017-10-06T02:03:07.060Z,0.00
2017-10-06T02:06:02.402Z,0.00
2017-10-06T02:10:43.259Z,0.00
2017-10-06T02:11:43.573Z,0.00
2017-10-06T02:12:44.213Z,0.00
2017-10-06T02:13:43.590Z,0.00
2017-10-06T02:14:43.025Z,0.00
2017-10-06T02:15:42.539Z,0.00
2017-10-06T02:16:42.449Z,0.00
2017-10-06T02:21:08.144Z,0.00
2017-10-06T02:22:15.303Z,0.00
2017-10-06T02:23:04.054Z,0.00
2017-10-06T02:24:04.205Z,0.00
2017-10-06T02:25:03.460Z,0.00
2017-10-06T02:26:03.409Z,0.00
2017-10-06T02:27:02.858Z,0.00
2017-10-06T02:28:03.368Z,0.00
2017-10-06T02:29:03.724Z,0.00
2017-10-06T02:30:03.262Z,0.00
2017-10-06T02:34:41.783Z,0.00
2017-10-06T02:35:40.977Z,0.00
2017-10-06T02:36:41.734Z,0.00
2017-10-06T02:37:42.478Z,0.00
2017-10-06T02:38:41.388Z,0.00
2017-10-06T02:39:41.328Z,0.00
2017-10-06T02:40:53.460Z,0.00
2017-10-06T02:41:40.740Z,0.00
2017-10-06T02:42:40.667Z,0.00
2017-10-06T02:43:41.168Z,0.00
2017-10-06T02:44:41.281Z,0.00
2017-10-06T02:45:40.584Z,0.00
2017-10-06T02:46:41.034Z,0.00
2017-10-06T02:47:40.482Z,0.00
2017-10-06T02:48:41.277Z,0.00
2017-10-06T02:49:40.366Z,0.00
2017-10-06T02:50:40.863Z,0.00
2017-10-06T02:51:40.273Z,0.00
2017-10-06T02:52:40.763Z,0.00
2017-10-06T02:53:51.876Z,0.00
2017-10-06T02:55:35.167Z,0.00
2017-10-06T02:56:34.933Z,0.00
2017-10-06T02:57:35.389Z,0.00
2017-10-06T02:58:35.021Z,0.00
2017-10-06T02:59:35.834Z,0.00
2017-10-06T03:00:35.270Z,0.00
2017-10-06T03:01:34.206Z,0.00
2017-10-06T03:02:35.195Z,0.00
2017-10-06T03:03:34.637Z,0.00
2017-10-06T03:04:35.077Z,0.00
2017-10-06T03:05:35.519Z,0.00
2017-10-06T03:06:35.050Z,0.00
2017-10-06T03:07:33.953Z,0.00
2017-10-06T03:08:33.688Z,0.00
2017-10-06T03:09:33.641Z,0.00
2017-10-06T03:10:33.448Z,0.00
2017-10-06T03:11:33.499Z,0.00
2017-10-06T03:12:33.363Z,0.00
2017-10-06T03:13:33.455Z,0.00
2017-10-06T03:14:33.384Z,0.00
2017-10-06T03:15:33.227Z,0.00
2017-10-06T03:16:33.139Z,0.00
2017-10-06T03:17:33.147Z,0.00
2017-10-06T03:18:33.131Z,0.00
2017-10-06T03:19:42.285Z,0.00
2017-10-06T03:21:45.382Z,0.00
2017-10-06T03:22:43.800Z,0.00
2017-10-06T03:23:43.258Z,0.00
2017-10-06T03:28:20.823Z,0.00
2017-10-06T03:29:20.650Z,0.00
2017-10-06T03:32:54.609Z,0.00
2017-10-06T03:33:54.622Z,0.00
2017-10-06T03:34:54.501Z,0.00
2017-10-06T03:35:54.618Z,0.00
2017-10-06T03:36:55.129Z,0.00
2017-10-06T03:39:38.682Z,0.00
2017-10-06T03:40:38.065Z,0.00
2017-10-06T03:41:40.850Z,0.00
2017-10-06T03:45:11.174Z,0.00
2017-10-06T03:46:11.165Z,0.00
2017-10-06T03:48:20.334Z,0.00
2017-10-06T03:49:16.648Z,0.00
2017-10-06T03:50:26.497Z,0.00
2017-10-06T03:51:17.141Z,0.00
2017-10-06T03:56:01.005Z,0.00
2017-10-06T03:56:58.344Z,0.00
2017-10-06T03:57:59.402Z,0.00
2017-10-06T03:58:58.759Z,0.00
2017-10-06T03:59:58.253Z,0.00
2017-10-06T04:00:58.727Z,0.00
2017-10-06T04:01:58.164Z,0.00
2017-10-06T04:02:59.199Z,0.00
2017-10-06T04:04:07.822Z,0.00
2017-10-06T04:05:51.918Z,0.00
2017-10-06T04:06:59.262Z,0.00
2017-10-06T04:07:50.903Z,0.00
2017-10-06T04:08:50.862Z,0.00
2017-10-06T04:09:51.844Z,0.00
2017-10-06T04:10:51.484Z,0.00
2017-10-06T04:11:51.444Z,0.00
2017-10-06T04:12:51.189Z,0.00
2017-10-06T04:13:51.204Z,0.00
2017-10-06T04:14:51.134Z,0.00
2017-10-06T04:15:50.537Z,0.00
2017-10-06T04:16:51.573Z,0.00
2017-10-06T04:17:51.025Z,0.00
2017-10-06T04:18:50.986Z,0.00
2017-10-06T04:19:50.956Z,0.00
2017-10-06T04:20:50.371Z,0.00
2017-10-06T04:23:45.036Z,0.00
2017-10-06T04:24:44.079Z,0.00
2017-10-06T04:25:44.617Z,0.00
2017-10-06T04:26:44.589Z,0.00
2017-10-06T04:27:44.591Z,0.00
2017-10-06T04:28:44.454Z,0.00
2017-10-06T04:29:44.429Z,0.00
2017-10-06T04:30:53.523Z,0.00
2017-10-06T04:42:04.054Z,0.00
2017-10-06T04:43:13.266Z,0.00
2017-10-06T04:44:05.003Z,0.00
2017-10-06T04:45:03.894Z,0.00
2017-10-06T04:46:04.925Z,0.00
2017-10-06T04:47:04.749Z,0.00
2017-10-06T04:48:05.238Z,0.00
2017-10-06T04:49:04.747Z,0.00
2017-10-06T04:52:00.818Z,4.00
2017-10-06T04:53:00.709Z,0.00
2017-10-06T04:54:01.866Z,4.00
2017-10-06T04:55:09.697Z,4.00
2017-10-06T04:56:52.931Z,4.00
2017-10-06T04:57:52.883Z,4.00
2017-10-06T04:59:48.655Z,4.00
2017-10-06T05:00:46.332Z,4.00
2017-10-06T05:01:45.731Z,8.00
2017-10-06T05:02:45.667Z,12.00
2017-10-06T05:03:46.717Z,12.00
2017-10-06T05:04:45.611Z,16.00
2017-10-06T05:05:46.072Z,16.00
2017-10-06T05:06:46.044Z,28.00
2017-10-06T05:07:46.195Z,32.00
2017-10-06T05:08:45.345Z,36.00
2017-10-06T05:09:45.100Z,48.00
2017-10-06T05:10:44.975Z,60.00
2017-10-06T05:11:44.906Z,72.00
2017-10-06T05:12:44.841Z,84.00
2017-10-06T05:13:44.822Z,96.00
2017-10-06T05:14:44.767Z,112.00
2017-10-06T05:15:44.702Z,144.00
2017-10-06T05:16:44.797Z,172.00
2017-10-06T05:17:44.618Z,176.00
2017-10-06T05:18:44.727Z,172.00
2017-10-06T05:19:44.557Z,172.00
2017-10-06T05:20:44.561Z,200.00
2017-10-06T05:21:44.479Z,220.00
2017-10-06T05:22:44.512Z,216.00
2017-10-06T05:23:44.471Z,184.00
2017-10-06T05:24:44.390Z,184.00
2017-10-06T05:25:44.369Z,164.00
2017-10-06T05:26:44.286Z,196.00
2017-10-06T05:27:44.263Z,264.00
2017-10-06T05:28:44.315Z,352.00
2017-10-06T05:29:44.161Z,372.00
2017-10-06T05:30:44.093Z,444.00
2017-10-06T05:31:44.086Z,560.00
2017-10-06T05:32:44.061Z,616.00
2017-10-06T05:33:43.965Z,700.00
2017-10-06T05:34:43.953Z,856.00
2017-10-06T05:35:43.953Z,1012.00
2017-10-06T05:36:43.924Z,1148.00
2017-10-06T05:37:43.861Z,1144.00
2017-10-06T05:38:43.792Z,1040.00
2017-10-06T05:39:43.809Z,1140.00
2017-10-06T05:40:43.712Z,1204.00
2017-10-06T05:41:43.674Z,1260.00
2017-10-06T05:42:43.669Z,1328.00
2017-10-06T05:43:43.595Z,1368.00
2017-10-06T05:44:43.586Z,1388.00
2017-10-06T05:45:43.541Z,1472.00
2017-10-06T05:46:43.730Z,1532.00
2017-10-06T05:47:54.073Z,1548.00
2017-10-06T06:08:55.162Z,2688.00
2017-10-06T06:09:54.474Z,3376.00
2017-10-06T06:10:55.015Z,3848.00
2017-10-06T06:15:42.932Z,3588.00
2017-10-06T06:16:43.313Z,4552.00
2017-10-06T06:18:36.140Z,4292.00
2017-10-06T06:19:36.121Z,3880.00
2017-10-06T06:21:30.045Z,3732.00
2017-10-06T06:24:13.884Z,5096.00
2017-10-06T06:25:11.733Z,5432.00
2017-10-06T06:29:35.018Z,8144.00
2017-10-06T06:30:33.654Z,8092.00
2017-10-06T06:31:33.926Z,8104.00
2017-10-06T06:32:33.588Z,7984.00
2017-10-06T06:33:32.988Z,7784.00
2017-10-06T06:34:34.028Z,7744.00
2017-10-06T06:37:16.721Z,6960.00
2017-10-06T06:38:14.623Z,6816.00
2017-10-06T06:39:14.013Z,6432.00
2017-10-06T06:44:14.972Z,5996.00
2017-10-06T06:45:15.287Z,5720.00
2017-10-06T06:46:15.125Z,5972.00
2017-10-06T06:47:23.040Z,6296.00
2017-10-06T06:49:07.650Z,6844.00
2017-10-06T06:50:08.158Z,7892.00
2017-10-06T06:52:00.755Z,8140.00
2017-10-06T06:53:01.491Z,9084.00
2017-10-06T06:54:55.160Z,11076.00
2017-10-06T06:55:55.133Z,11336.00
2017-10-06T06:57:48.815Z,14064.00
2017-10-06T06:58:49.043Z,15136.00
2017-10-06T07:00:54.723Z,13932.00
2017-10-06T07:01:54.674Z,13012.00
2017-10-06T07:02:54.622Z,12624.00
2017-10-06T07:03:54.849Z,14028.00
2017-10-06T07:05:03.289Z,14588.00
2017-10-06T07:06:48.678Z,13104.00
2017-10-06T07:07:49.878Z,11080.00
2017-10-06T07:09:41.646Z,10372.00
2017-10-06T07:10:41.146Z,11372.00
2017-10-06T07:11:40.594Z,11240.00
2017-10-06T07:12:41.067Z,10768.00
2017-10-06T07:13:40.513Z,12624.00
2017-10-06T07:14:40.997Z,13036.00
2017-10-06T07:15:41.182Z,13040.00
2017-10-06T07:16:40.908Z,11624.00
2017-10-06T07:17:40.881Z,10636.00
2017-10-06T07:18:41.134Z,10420.00
2017-10-06T07:19:40.775Z,13752.00
2017-10-06T07:20:40.729Z,15512.00
2017-10-06T07:21:40.652Z,15216.00
2017-10-06T07:22:40.147Z,15792.00
2017-10-06T07:23:40.044Z,12376.00
2017-10-06T07:24:39.718Z,10564.00
2017-10-06T07:25:39.675Z,9640.00
2017-10-06T07:26:39.550Z,9412.00
2017-10-06T07:27:39.514Z,9512.00
2017-10-06T07:28:39.455Z,9548.00
2017-10-06T07:29:39.415Z,11988.00
2017-10-06T07:30:39.386Z,11480.00
2017-10-06T07:31:39.349Z,11052.00
2017-10-06T07:32:39.354Z,13600.00
2017-10-06T07:33:39.324Z,13308.00
2017-10-06T07:34:39.212Z,13764.00
2017-10-06T07:35:39.249Z,16288.00
2017-10-06T07:36:39.098Z,16776.00
2017-10-06T07:37:39.060Z,18336.00
2017-10-06T07:38:39.038Z,21600.00
2017-10-06T07:39:39.021Z,19520.00
2017-10-06T07:40:38.992Z,22880.00
2017-10-06T07:41:38.962Z,18624.00
2017-10-06T07:42:38.870Z,16332.00
2017-10-06T07:43:38.946Z,14400.00
2017-10-06T07:44:38.826Z,15728.00
2017-10-06T07:45:38.748Z,18208.00
2017-10-06T07:46:38.733Z,15652.00
2017-10-06T07:47:38.729Z,14976.00
2017-10-06T07:48:38.664Z,19392.00
2017-10-06T07:49:38.593Z,21504.00
2017-10-06T07:50:38.653Z,19872.00
2017-10-06T07:51:38.517Z,16784.00
2017-10-06T07:52:38.476Z,15980.00
2017-10-06T07:53:38.522Z,16612.00
2017-10-06T07:54:38.431Z,14164.00
2017-10-06T07:55:38.453Z,15196.00
2017-10-06T07:56:38.363Z,13588.00
2017-10-06T07:57:38.403Z,17116.00
2017-10-06T07:58:38.248Z,17728.00
2017-10-06T07:59:38.243Z,20576.00
2017-10-06T08:00:38.207Z,23072.00
2017-10-06T08:01:38.151Z,24384.00
2017-10-06T08:02:38.131Z,22880.00
2017-10-06T08:03:38.074Z,21888.00
2017-10-06T08:04:38.080Z,19936.00
2017-10-06T08:05:38.024Z,15240.00
2017-10-06T08:06:37.947Z,18944.00
2017-10-06T08:07:37.908Z,21600.00
2017-10-06T08:08:37.949Z,22784.00
2017-10-06T08:09:37.832Z,18400.00
2017-10-06T08:10:37.778Z,17916.00
2017-10-06T08:11:37.738Z,22176.00
2017-10-06T08:12:37.739Z,19488.00
2017-10-06T08:13:37.748Z,17788.00
2017-10-06T08:14:37.646Z,24192.00
2017-10-06T08:15:37.585Z,27616.00
2017-10-06T08:16:37.613Z,25440.00
2017-10-06T08:17:37.523Z,24576.00
2017-10-06T08:18:37.527Z,24704.00
2017-10-06T08:19:37.433Z,23616.00
2017-10-06T08:20:37.426Z,20960.00
2017-10-06T08:21:37.421Z,19008.00
2017-10-06T08:22:37.317Z,18688.00
2017-10-06T08:23:37.281Z,19264.00
2017-10-06T08:24:37.258Z,20032.00
2017-10-06T08:25:37.211Z,20608.00
2017-10-06T08:26:37.195Z,24512.00
2017-10-06T08:27:37.138Z,23392.00
2017-10-06T08:28:37.089Z,19360.00
2017-10-06T08:29:37.058Z,16972.00
2017-10-06T08:30:37.043Z,16164.00
2017-10-06T08:31:36.982Z,15092.00
2017-10-06T08:32:36.978Z,13412.00
2017-10-06T08:33:36.933Z,14592.00
2017-10-06T08:34:36.885Z,16840.00
2017-10-06T08:35:36.875Z,20320.00
2017-10-06T08:36:36.836Z,20640.00
2017-10-06T08:37:36.776Z,16596.00
2017-10-06T08:38:36.745Z,15732.00
2017-10-06T08:39:36.741Z,15284.00
2017-10-06T08:40:36.654Z,15100.00
2017-10-06T08:41:36.652Z,13328.00
2017-10-06T08:42:36.565Z,13900.00
2017-10-06T08:43:36.542Z,14884.00
2017-10-06T08:44:36.485Z,14376.00
2017-10-06T08:45:36.453Z,14700.00
2017-10-06T08:46:36.406Z,11408.00
2017-10-06T08:47:36.401Z,11872.00
2017-10-06T08:48:36.334Z,13016.00
2017-10-06T08:49:36.329Z,12724.00
2017-10-06T08:50:36.263Z,15080.00
2017-10-06T08:51:36.218Z,14052.00
2017-10-06T08:52:38.823Z,11628.00
2017-10-06T08:53:36.198Z,9812.00
2017-10-06T08:54:36.131Z,11460.00
2017-10-06T08:55:36.126Z,13416.00
2017-10-06T08:56:36.060Z,15364.00
2017-10-06T08:57:36.040Z,18208.00
2017-10-06T08:58:35.987Z,19200.00
2017-10-06T08:59:35.960Z,12820.00
2017-10-06T09:00:35.915Z,9536.00
2017-10-06T09:01:35.898Z,10420.00
2017-10-06T09:02:35.810Z,12332.00
2017-10-06T09:03:35.843Z,11024.00
2017-10-06T09:04:35.738Z,9540.00
2017-10-06T09:05:35.785Z,9944.00
2017-10-06T09:06:35.649Z,13020.00
2017-10-06T09:07:35.634Z,14696.00
2017-10-06T09:08:35.561Z,15888.00
2017-10-06T09:09:35.530Z,16552.00
2017-10-06T09:10:35.529Z,16872.00
2017-10-06T09:11:37.343Z,19296.00
2017-10-06T09:12:35.484Z,19712.00
2017-10-06T09:13:35.414Z,18176.00
2017-10-06T09:14:35.388Z,17316.00
2017-10-06T09:15:35.304Z,19456.00
2017-10-06T09:16:35.324Z,20704.00
2017-10-06T09:17:35.338Z,19104.00
2017-10-06T09:18:35.185Z,18048.00
2017-10-06T09:19:35.145Z,16400.00
2017-10-06T09:20:35.109Z,13076.00
2017-10-06T09:21:35.126Z,12928.00
2017-10-06T09:22:35.089Z,13952.00
2017-10-06T09:23:34.988Z,12856.00
2017-10-06T09:24:34.979Z,12224.00
2017-10-06T09:25:34.998Z,12740.00
2017-10-06T09:26:34.882Z,13260.00
2017-10-06T09:27:34.891Z,15184.00
2017-10-06T09:28:34.813Z,15404.00
2017-10-06T09:29:34.862Z,13308.00
2017-10-06T09:30:34.758Z,12044.00
2017-10-06T09:31:34.706Z,12712.00
2017-10-06T09:32:34.724Z,14324.00
2017-10-06T09:33:34.652Z,15792.00
2017-10-06T09:34:34.643Z,17068.00
2017-10-06T09:35:34.563Z,18624.00
2017-10-06T09:36:34.549Z,19936.00
2017-10-06T09:37:34.515Z,22752.00
2017-10-06T09:38:34.460Z,29568.00
2017-10-06T09:39:34.416Z,30112.00
2017-10-06T09:40:34.346Z,27488.00
2017-10-06T09:41:34.356Z,24064.00
2017-10-06T09:42:34.313Z,23040.00
2017-10-06T09:43:34.240Z,21760.00
2017-10-06T09:44:34.190Z,24160.00
2017-10-06T09:45:34.202Z,26208.00
2017-10-06T09:46:34.162Z,25184.00
2017-10-06T09:47:34.119Z,38080.00
2017-10-06T09:48:34.042Z,98112.00
2017-10-06T09:49:33.997Z,38656.00
2017-10-06T09:50:33.972Z,36128.00
2017-10-06T09:51:33.984Z,95040.00
2017-10-06T09:52:33.912Z,41984.00
2017-10-06T09:53:33.877Z,60896.00
2017-10-06T09:54:33.850Z,47264.00
2017-10-06T09:55:33.796Z,60288.00
2017-10-06T09:56:33.821Z,51520.00
2017-10-06T09:57:33.774Z,32128.00
2017-10-06T09:58:33.695Z,28032.00
2017-10-06T09:59:33.642Z,30240.00
2017-10-06T10:00:33.614Z,25408.00
2017-10-06T10:01:33.640Z,18944.00
2017-10-06T10:02:33.558Z,15832.00
2017-10-06T10:03:33.521Z,16340.00
2017-10-06T10:04:33.475Z,19808.00
2017-10-06T10:05:33.442Z,23488.00
2017-10-06T10:06:33.403Z,22176.00
2017-10-06T10:07:33.424Z,17696.00
2017-10-06T10:08:33.369Z,15924.00
2017-10-06T10:09:33.295Z,19264.00
2017-10-06T10:10:33.259Z,26624.00
2017-10-06T10:11:33.242Z,30656.00
2017-10-06T10:12:33.191Z,28992.00
2017-10-06T10:13:33.174Z,31040.00
2017-10-06T10:14:33.119Z,31424.00
2017-10-06T10:15:33.088Z,24864.00
2017-10-06T10:16:33.051Z,27296.00
2017-10-06T10:17:33.011Z,30752.00
2017-10-06T10:18:33.001Z,28992.00
2017-10-06T10:19:32.941Z,29568.00
2017-10-06T10:20:32.900Z,27168.00
2017-10-06T10:21:32.869Z,22112.00
2017-10-06T10:22:32.830Z,20352.00
2017-10-06T10:23:32.810Z,23008.00
2017-10-06T10:24:32.796Z,20960.00
2017-10-06T10:25:32.751Z,18784.00
2017-10-06T10:26:32.683Z,16580.00
2017-10-06T10:27:32.643Z,18592.00
2017-10-06T10:28:32.647Z,21408.00
2017-10-06T10:29:32.606Z,24896.00
2017-10-06T10:30:32.632Z,27808.00
2017-10-06T10:31:32.516Z,30624.00
2017-10-06T10:32:32.502Z,34336.00
2017-10-06T10:33:32.473Z,40640.00
2017-10-06T10:34:32.426Z,53984.00
2017-10-06T10:35:32.362Z,33888.00
2017-10-06T10:36:32.351Z,33568.00
2017-10-06T10:37:32.326Z,33760.00
2017-10-06T10:38:32.292Z,30112.00
2017-10-06T10:39:32.210Z,24256.00
2017-10-06T10:40:32.207Z,24192.00
2017-10-06T10:41:32.175Z,26048.00
2017-10-06T10:42:32.149Z,27808.00
2017-10-06T10:43:32.109Z,27968.00
2017-10-06T10:44:32.053Z,32704.00
2017-10-06T10:45:32.000Z,36160.00
2017-10-06T10:46:31.964Z,40288.00
2017-10-06T10:47:31.928Z,37248.00
2017-10-06T10:48:31.915Z,37184.00
2017-10-06T10:49:31.855Z,35136.00
2017-10-06T10:50:31.824Z,34496.00
2017-10-06T10:51:31.780Z,30400.00
2017-10-06T10:52:31.767Z,23264.00
2017-10-06T10:53:31.712Z,17208.00
2017-10-06T10:54:31.724Z,19968.00
2017-10-06T10:55:31.634Z,21824.00
2017-10-06T10:56:31.654Z,21952.00
2017-10-06T10:57:31.571Z,26592.00
2017-10-06T10:58:31.547Z,28672.00
2017-10-06T10:59:31.495Z,27776.00
2017-10-06T11:00:31.481Z,29408.00
2017-10-06T11:01:31.419Z,38976.00
2017-10-06T11:02:31.421Z,40096.00
2017-10-06T11:03:31.398Z,38592.00
2017-10-06T11:04:31.343Z,35456.00
2017-10-06T11:05:31.313Z,24832.00
2017-10-06T11:06:31.238Z,20448.00
2017-10-06T11:07:31.197Z,18336.00
2017-10-06T11:08:31.170Z,13604.00
2017-10-06T11:09:31.135Z,13324.00
2017-10-06T11:10:31.092Z,15876.00
2017-10-06T11:11:31.075Z,18080.00
2017-10-06T11:12:31.032Z,20960.00
2017-10-06T11:13:31.005Z,20480.00
2017-10-06T11:14:32.832Z,19488.00
2017-10-06T11:15:30.926Z,22912.00
2017-10-06T11:16:30.885Z,26272.00
2017-10-06T11:17:30.839Z,27168.00
2017-10-06T11:18:30.819Z,27872.00
2017-10-06T11:19:30.804Z,27488.00
2017-10-06T11:20:30.738Z,27424.00
2017-10-06T11:21:30.723Z,27584.00
2017-10-06T11:22:30.688Z,27104.00
2017-10-06T11:23:30.611Z,24864.00
2017-10-06T11:24:30.610Z,40096.00
2017-10-06T11:25:30.555Z,29184.00
2017-10-06T11:26:30.517Z,24480.00
2017-10-06T11:27:30.494Z,23264.00
2017-10-06T11:28:30.476Z,22400.00
2017-10-06T11:29:30.405Z,24032.00
2017-10-06T11:30:30.371Z,21664.00
2017-10-06T11:31:30.346Z,17696.00
2017-10-06T11:32:30.293Z,17204.00
2017-10-06T11:33:30.288Z,18720.00
2017-10-06T11:34:30.217Z,21088.00
2017-10-06T11:35:30.268Z,20224.00
2017-10-06T11:36:30.146Z,19616.00
2017-10-06T11:37:30.116Z,22592.00
2017-10-06T11:38:30.108Z,24544.00
2017-10-06T11:39:31.859Z,23136.00
2017-10-06T11:40:30.024Z,21376.00
2017-10-06T11:41:29.958Z,21344.00
2017-10-06T11:42:29.927Z,22592.00
2017-10-06T11:43:29.883Z,25472.00
2017-10-06T11:44:29.877Z,28544.00
2017-10-06T11:45:29.817Z,27680.00
2017-10-06T11:46:29.786Z,19072.00
2017-10-06T11:47:29.736Z,13988.00
2017-10-06T11:48:29.706Z,12928.00
2017-10-06T11:49:29.694Z,15112.00
2017-10-06T11:50:29.651Z,17040.00
2017-10-06T11:51:29.588Z,15288.00
2017-10-06T11:52:29.545Z,16012.00
2017-10-06T11:53:29.519Z,16340.00
2017-10-06T11:54:29.506Z,15804.00
2017-10-06T11:55:29.476Z,16004.00
2017-10-06T11:56:29.402Z,19040.00
2017-10-06T11:57:29.360Z,24672.00
2017-10-06T11:58:29.323Z,26400.00
2017-10-06T11:59:29.314Z,25824.00
2017-10-06T12:00:29.252Z,27360.00
2017-10-06T12:01:29.256Z,32576.00
2017-10-06T12:02:29.174Z,36160.00
2017-10-06T12:03:29.143Z,33632.00
2017-10-06T12:04:29.126Z,36160.00
2017-10-06T12:05:29.060Z,84384.00
2017-10-06T12:06:29.023Z,72960.00
2017-10-06T12:07:29.027Z,42528.00
2017-10-06T12:08:28.953Z,35936.00
2017-10-06T12:09:28.980Z,33120.00
2017-10-06T12:10:28.920Z,40832.00
2017-10-06T12:11:28.843Z,49408.00
2017-10-06T12:12:28.809Z,48128.00
2017-10-06T12:13:28.781Z,54848.00
2017-10-06T12:14:28.733Z,59872.00
2017-10-06T12:15:28.696Z,57184.00
2017-10-06T12:16:28.671Z,68640.00
2017-10-06T12:17:28.690Z,74976.00
2017-10-06T12:18:28.601Z,70304.00
2017-10-06T12:19:28.570Z,52448.00
2017-10-06T12:20:28.533Z,38816.00
2017-10-06T12:21:28.503Z,38432.00
2017-10-06T12:22:28.518Z,33952.00
2017-10-06T12:23:28.440Z,32800.00
2017-10-06T12:24:28.401Z,36480.00
2017-10-06T12:25:28.408Z,41216.00
2017-10-06T12:26:28.340Z,27840.00
2017-10-06T12:27:28.343Z,36192.00
2017-10-06T12:28:28.332Z,33632.00
2017-10-06T12:29:28.264Z,30144.00
2017-10-06T12:30:28.239Z,31520.00
2017-10-06T12:31:28.175Z,33536.00
2017-10-06T12:32:28.159Z,36736.00
2017-10-06T12:33:28.148Z,32768.00
2017-10-06T12:34:28.076Z,38016.00
2017-10-06T12:35:28.046Z,35680.00
2017-10-06T12:36:28.047Z,31136.00
2017-10-06T12:37:28.037Z,29152.00
2017-10-06T12:38:27.994Z,36384.00
2017-10-06T12:39:27.956Z,42016.00
2017-10-06T12:40:27.905Z,37216.00
2017-10-06T12:41:27.869Z,36416.00
2017-10-06T12:42:27.827Z,30816.00
2017-10-06T12:43:27.813Z,27456.00
2017-10-06T12:44:27.756Z,27264.00
2017-10-06T12:45:27.741Z,25120.00
2017-10-06T12:46:27.671Z,18528.00
2017-10-06T12:47:27.639Z,15572.00
2017-10-06T12:48:27.617Z,15332.00
2017-10-06T12:49:27.611Z,15872.00
2017-10-06T12:50:27.556Z,17888.00
2017-10-06T12:51:27.507Z,20768.00
2017-10-06T12:52:27.530Z,21824.00
2017-10-06T12:53:27.434Z,22080.00
2017-10-06T12:54:27.426Z,20160.00
2017-10-06T12:55:27.360Z,19104.00
2017-10-06T12:56:27.328Z,18464.00
2017-10-06T12:57:27.291Z,18368.00
2017-10-06T12:58:27.283Z,17312.00
2017-10-06T12:59:27.246Z,15436.00
2017-10-06T13:00:27.218Z,14272.00
2017-10-06T13:01:27.161Z,13152.00
2017-10-06T13:02:27.118Z,13928.00
2017-10-06T13:03:27.087Z,16032.00
2017-10-06T13:04:27.043Z,18656.00
2017-10-06T13:05:27.038Z,21120.00
2017-10-06T13:06:26.967Z,23296.00
2017-10-06T13:07:26.929Z,23648.00
2017-10-06T13:08:26.897Z,25760.00
2017-10-06T13:09:26.853Z,27520.00
2017-10-06T13:10:26.824Z,36608.00
2017-10-06T13:11:26.805Z,28224.00
2017-10-06T13:12:26.747Z,26560.00
2017-10-06T13:13:26.719Z,27136.00
2017-10-06T13:14:26.729Z,31232.00
2017-10-06T13:15:26.707Z,23360.00
2017-10-06T13:16:26.638Z,20896.00
2017-10-06T13:17:26.607Z,19680.00
2017-10-06T13:18:26.537Z,20256.00
2017-10-06T13:19:26.497Z,22752.00
2017-10-06T13:20:26.498Z,23136.00
2017-10-06T13:21:26.426Z,22528.00
2017-10-06T13:22:26.387Z,23232.00
2017-10-06T13:23:26.378Z,22304.00
2017-10-06T13:24:26.320Z,23264.00
2017-10-06T13:25:26.283Z,25152.00
2017-10-06T13:26:26.242Z,26176.00
2017-10-06T13:27:26.233Z,25664.00
2017-10-06T13:28:26.176Z,23456.00
2017-10-06T13:29:26.149Z,21408.00
2017-10-06T13:30:26.124Z,17728.00
2017-10-06T13:31:26.113Z,21728.00
2017-10-06T13:32:26.026Z,22432.00
2017-10-06T13:33:26.012Z,18176.00
2017-10-06T13:34:25.950Z,16264.00
2017-10-06T13:35:35.580Z,16472.00
2017-10-06T13:36:27.764Z,15020.00
2017-10-06T13:37:26.333Z,13516.00
2017-10-06T13:38:26.300Z,14036.00
2017-10-06T13:39:26.797Z,16952.00
2017-10-06T13:40:26.807Z,17824.00
2017-10-06T13:41:26.725Z,16040.00
2017-10-06T13:42:27.167Z,15548.00
2017-10-06T13:43:26.127Z,15188.00
2017-10-06T13:44:27.309Z,13588.00
2017-10-06T13:45:26.541Z,9944.00
2017-10-06T13:46:27.031Z,7140.00
2017-10-06T13:47:26.800Z,5984.00
2017-10-06T13:48:26.479Z,6068.00
2017-10-06T13:49:25.904Z,6216.00
2017-10-06T13:50:26.774Z,6372.00
2017-10-06T13:51:26.298Z,6524.00
2017-10-06T13:52:29.156Z,6380.00
2017-10-06T13:53:34.972Z,6536.00
2017-10-06T13:54:26.828Z,6292.00
2017-10-06T13:55:25.616Z,6868.00
2017-10-06T13:56:26.148Z,8860.00
2017-10-06T13:57:26.315Z,13984.00
2017-10-06T13:58:25.544Z,17920.00
2017-10-06T13:59:26.571Z,19264.00
2017-10-06T14:00:26.017Z,26624.00
2017-10-06T14:01:26.263Z,17676.00
2017-10-06T14:02:26.328Z,45056.00
2017-10-06T14:03:25.875Z,40512.00
2017-10-06T14:04:26.968Z,41440.00
2017-10-06T14:05:26.883Z,39712.00
2017-10-06T14:06:25.783Z,42624.00
2017-10-06T14:07:26.317Z,48224.00
2017-10-06T14:08:25.190Z,44896.00
2017-10-06T14:11:08.081Z,28704.00
2017-10-06T14:12:07.993Z,19488.00
2017-10-06T14:13:07.963Z,15608.00
2017-10-06T14:14:07.995Z,14976.00
2017-10-06T14:15:07.907Z,12644.00
2017-10-06T14:16:07.847Z,11932.00
2017-10-06T14:17:07.780Z,12872.00
2017-10-06T14:18:07.994Z,12212.00
2017-10-06T14:19:07.748Z,11160.00
2017-10-06T14:20:07.711Z,10052.00
2017-10-06T14:21:07.944Z,9528.00
2017-10-06T14:22:07.081Z,10552.00
2017-10-06T14:23:07.980Z,12440.00
2017-10-06T14:24:08.006Z,12444.00
2017-10-06T14:25:06.978Z,11228.00
2017-10-06T14:26:07.435Z,10812.00
2017-10-06T14:27:07.492Z,11324.00
2017-10-06T14:28:07.436Z,11324.00
2017-10-06T14:29:07.911Z,11356.00
2017-10-06T14:30:06.827Z,14212.00
2017-10-06T14:31:06.807Z,14968.00
2017-10-06T14:32:07.770Z,14600.00
2017-10-06T14:33:07.130Z,15836.00
2017-10-06T14:34:07.163Z,16820.00
2017-10-06T14:35:07.494Z,18496.00
2017-10-06T14:36:06.623Z,20288.00
2017-10-06T14:37:06.489Z,20576.00
2017-10-06T14:38:06.490Z,21568.00
2017-10-06T14:39:06.993Z,21568.00
2017-10-06T14:40:06.463Z,18784.00
2017-10-06T14:41:06.362Z,14624.00
2017-10-06T14:42:06.991Z,12660.00
2017-10-06T14:43:06.316Z,12520.00
2017-10-06T14:44:06.344Z,14364.00
2017-10-06T14:45:06.197Z,15652.00
2017-10-06T14:46:06.241Z,14492.00